S C — FGF7634 — position and weather

sailwx.info

Track history (hours):
 
Tides and Currents Weather Stations Pressure Air Temp Water Temp Dewpoint Dewpoint Depression Visibility Wind Speed Wind Dir Waves Ship Positions

S C

Last reported at 2016-Jun-25 02:33 UTC. Time now 2016-Jun-25 03:36 UTC.
Position N 49°30' W 000°00'.

; draft 1 m.

Type: Pilot. MMSI: 227001820.

Date/timePositionNaut miles runAvg speedWind from/ knotsBaromVisibWave heightAir tempDewpointWater temp
2016-Jun-25 02:33N 49°30' W 000°00'5 4.6
2016-Jun-25 01:33N 49°29' E 000°07'0 0.0
2016-Jun-25 00:33N 49°29' E 000°07'0 0.0
2016-Jun-24 23:33N 49°29' E 000°07'5 4.7
2016-Jun-24 22:33N 49°31' E 000°00'5 4.7
2016-Jun-24 21:34N 49°29' E 000°07'0 0.0
2016-Jun-24 20:34N 49°29' E 000°07'6 5.5
2016-Jun-24 19:33N 49°30' W 000°01'6 5.5
2016-Jun-24 18:33N 49°29' E 000°07'0 0.0
2016-Jun-24 17:33N 49°29' E 000°07'0 0.0
2016-Jun-24 16:33N 49°29' E 000°07'0 0.0
2016-Jun-24 15:33N 49°29' E 000°07'0 0.0
2016-Jun-24 14:33N 49°29' E 000°07'8 8.3
2016-Jun-24 13:33N 49°31' W 000°05'8 8.3
2016-Jun-24 12:34N 49°29' E 000°07'1 0.6
2016-Jun-24 11:33N 49°29' E 000°06'1 0.6
2016-Jun-24 10:33N 49°29' E 000°07'3 3.1
2016-Jun-24 09:34N 49°30' E 000°02'3 3.0
2016-Jun-24 08:33N 49°29' E 000°07'0 0.0
2016-Jun-24 07:34N 49°29' E 000°07'0 0.0
2016-Jun-24 04:33N 49°29' E 000°07'9 9.2
2016-Jun-24 03:33N 49°31' W 000°07'9 9.2
2016-Jun-24 02:33N 49°29' E 000°07'3 2.9
2016-Jun-24 01:33N 49°30' E 000°02'3 2.9
2016-Jun-24 00:33N 49°29' E 000°07'0 0.0
2016-Jun-23 23:33N 49°29' E 000°07'0 0.0
2016-Jun-23 22:33N 49°29' E 000°07'0 0.0
2016-Jun-23 21:33N 49°29' E 000°07'0 0.0
2016-Jun-23 20:33N 49°29' E 000°07'0 0.0
2016-Jun-23 19:33N 49°29' E 000°07'0 0.0
2016-Jun-23 18:33N 49°29' E 000°07'0 0.0
2016-Jun-23 17:33N 49°29' E 000°07'0 0.0
2016-Jun-23 16:33N 49°29' E 000°07'0 0.0
2016-Jun-23 15:33N 49°29' E 000°07'0 0.0
2016-Jun-23 14:33N 49°29' E 000°07'0 0.0
2016-Jun-23 13:33N 49°29' E 000°07'0 0.0
2016-Jun-23 12:33N 49°29' E 000°07'7 7.1
2016-Jun-23 11:33N 49°31' W 000°04'7 7.1
2016-Jun-23 10:33N 49°29' E 000°07'0 0.0
2016-Jun-23 09:33N 49°29' E 000°07'0 0.0
2016-Jun-23 08:33N 49°29' E 000°07'0 0.0
2016-Jun-23 07:33N 49°29' E 000°07'0 0.0
2016-Jun-23 05:33N 49°29' E 000°07'0 0.0
2016-Jun-23 04:33N 49°29' E 000°07'0 0.0
2016-Jun-23 03:33N 49°29' E 000°07'0 0.0
2016-Jun-23 02:33N 49°29' E 000°07'10 9.7
2016-Jun-23 01:34N 49°32' W 000°07'10 9.7
2016-Jun-23 00:34N 49°29' E 000°07'3 3.4
2016-Jun-22 23:33N 49°29' E 000°02'3 3.4
2016-Jun-22 22:34N 49°29' E 000°07'5 5.2
2016-Jun-22 21:34N 49°30' W 000°01'5 5.2
2016-Jun-22 20:33N 49°29' E 000°07'3 2.9
2016-Jun-22 19:34N 49°30' E 000°02'3 2.8
2016-Jun-22 18:33N 49°29' E 000°07'0 0.0
2016-Jun-22 17:33N 49°29' E 000°07'0 0.0
2016-Jun-22 16:33N 49°29' E 000°07'0 0.2
2016-Jun-22 15:33N 49°29' E 000°06'0 0.2
2016-Jun-22 14:33N 49°29' E 000°07'0 0.0
2016-Jun-22 13:33N 49°29' E 000°07'1 1.2
2016-Jun-22 12:34N 49°29' E 000°05'1 1.2
2016-Jun-22 11:33N 49°29' E 000°07'0 0.3
2016-Jun-22 10:33N 49°29' E 000°06'0 0.3
2016-Jun-22 09:34N 49°29' E 000°07'1 1.1
2016-Jun-22 08:33N 49°29' E 000°05'0 0.5
2016-Jun-22 07:33N 49°29' E 000°06'1 0.7
2016-Jun-22 06:33N 49°29' E 000°07'0 0.0
2016-Jun-21 08:33N 49°29' E 000°07'0 0.0
2016-Jun-20 15:09N 49°29' E 000°07'0 0.0
2016-Jun-20 14:34N 49°29' E 000°07'0 0.0
2016-Jun-20 13:06N 49°29' E 000°07'0 0.0
2016-Jun-20 12:33N 49°29' E 000°07'0 0.0
2016-Jun-20 08:31N 49°29' E 000°07'0 0.0
2016-Jun-19 16:10N 49°29' E 000°07'  
Track history (hours):
 
Tides and Currents Weather Stations Pressure Air Temp Water Temp Dewpoint Dewpoint Depression Visibility Wind Speed Wind Dir Waves Ship Positions

S C

Last reported at 2016-Jun-25 02:33 UTC. Time now 2016-Jun-25 03:36 UTC.
Position N 49°30' W 000°00'.

; draft 1 m.

Type: Pilot. MMSI: 227001820.

Date/timePositionNaut miles runAvg speedWind from/ knotsBaromVisibWave heightAir tempDewpointWater temp
2016-Jun-25 02:33N 49°30' W 000°00'5 4.6
2016-Jun-25 01:33N 49°29' E 000°07'0 0.0
2016-Jun-25 00:33N 49°29' E 000°07'0 0.0
2016-Jun-24 23:33N 49°29' E 000°07'5 4.7
2016-Jun-24 22:33N 49°31' E 000°00'5 4.7
2016-Jun-24 21:34N 49°29' E 000°07'0 0.0
2016-Jun-24 20:34N 49°29' E 000°07'6 5.5
2016-Jun-24 19:33N 49°30' W 000°01'6 5.5
2016-Jun-24 18:33N 49°29' E 000°07'0 0.0
2016-Jun-24 17:33N 49°29' E 000°07'0 0.0
2016-Jun-24 16:33N 49°29' E 000°07'0 0.0
2016-Jun-24 15:33N 49°29' E 000°07'0 0.0
2016-Jun-24 14:33N 49°29' E 000°07'8 8.3
2016-Jun-24 13:33N 49°31' W 000°05'8 8.3
2016-Jun-24 12:34N 49°29' E 000°07'1 0.6
2016-Jun-24 11:33N 49°29' E 000°06'1 0.6
2016-Jun-24 10:33N 49°29' E 000°07'3 3.1
2016-Jun-24 09:34N 49°30' E 000°02'3 3.0
2016-Jun-24 08:33N 49°29' E 000°07'0 0.0
2016-Jun-24 07:34N 49°29' E 000°07'0 0.0
2016-Jun-24 04:33N 49°29' E 000°07'9 9.2
2016-Jun-24 03:33N 49°31' W 000°07'9 9.2
2016-Jun-24 02:33N 49°29' E 000°07'3 2.9
2016-Jun-24 01:33N 49°30' E 000°02'3 2.9
2016-Jun-24 00:33N 49°29' E 000°07'0 0.0
2016-Jun-23 23:33N 49°29' E 000°07'0 0.0
2016-Jun-23 22:33N 49°29' E 000°07'0 0.0
2016-Jun-23 21:33N 49°29' E 000°07'0 0.0
2016-Jun-23 20:33N 49°29' E 000°07'0 0.0
2016-Jun-23 19:33N 49°29' E 000°07'0 0.0
2016-Jun-23 18:33N 49°29' E 000°07'0 0.0
2016-Jun-23 17:33N 49°29' E 000°07'0 0.0
2016-Jun-23 16:33N 49°29' E 000°07'0 0.0
2016-Jun-23 15:33N 49°29' E 000°07'0 0.0
2016-Jun-23 14:33N 49°29' E 000°07'0 0.0
2016-Jun-23 13:33N 49°29' E 000°07'0 0.0
2016-Jun-23 12:33N 49°29' E 000°07'7 7.1
2016-Jun-23 11:33N 49°31' W 000°04'7 7.1
2016-Jun-23 10:33N 49°29' E 000°07'0 0.0
2016-Jun-23 09:33N 49°29' E 000°07'0 0.0
2016-Jun-23 08:33N 49°29' E 000°07'0 0.0
2016-Jun-23 07:33N 49°29' E 000°07'0 0.0
2016-Jun-23 05:33N 49°29' E 000°07'0 0.0
2016-Jun-23 04:33N 49°29' E 000°07'0 0.0
2016-Jun-23 03:33N 49°29' E 000°07'0 0.0
2016-Jun-23 02:33N 49°29' E 000°07'10 9.7
2016-Jun-23 01:34N 49°32' W 000°07'10 9.7
2016-Jun-23 00:34N 49°29' E 000°07'3 3.4
2016-Jun-22 23:33N 49°29' E 000°02'3 3.4
2016-Jun-22 22:34N 49°29' E 000°07'5 5.2
2016-Jun-22 21:34N 49°30' W 000°01'5 5.2
2016-Jun-22 20:33N 49°29' E 000°07'3 2.9
2016-Jun-22 19:34N 49°30' E 000°02'3 2.8
2016-Jun-22 18:33N 49°29' E 000°07'0 0.0
2016-Jun-22 17:33N 49°29' E 000°07'0 0.0
2016-Jun-22 16:33N 49°29' E 000°07'0 0.2
2016-Jun-22 15:33N 49°29' E 000°06'0 0.2
2016-Jun-22 14:33N 49°29' E 000°07'0 0.0
2016-Jun-22 13:33N 49°29' E 000°07'1 1.2
2016-Jun-22 12:34N 49°29' E 000°05'1 1.2
2016-Jun-22 11:33N 49°29' E 000°07'0 0.3
2016-Jun-22 10:33N 49°29' E 000°06'0 0.3
2016-Jun-22 09:34N 49°29' E 000°07'1 1.1
2016-Jun-22 08:33N 49°29' E 000°05'0 0.5
2016-Jun-22 07:33N 49°29' E 000°06'1 0.7
2016-Jun-22 06:33N 49°29' E 000°07'0 0.0
2016-Jun-21 08:33N 49°29' E 000°07'0 0.0
2016-Jun-20 15:09N 49°29' E 000°07'0 0.0
2016-Jun-20 14:34N 49°29' E 000°07'0 0.0
2016-Jun-20 13:06N 49°29' E 000°07'0 0.0
2016-Jun-20 12:33N 49°29' E 000°07'0 0.0
2016-Jun-20 08:31N 49°29' E 000°07'0 0.0
2016-Jun-19 16:10N 49°29' E 000°07'  

Dump ship's entire track history